DAL504 KIAD-KATL
Flight info
| Callsign | DAL504 |
|---|---|
| Flight time | 1h 23m |
| Altitude | 36000 |
| Route | CLTCH3 FLASK OZZZI2 |
| Aircraft | B738/M-SDE2E3FGHIRWXY/LB1 |
Departure
| Time | 2026-05-04 05:49 |
|---|---|
| Airport | Washington Dulles International Airport (KIAD) |
Arrival
| Time | 2026-05-04 07:12 |
|---|---|
| Airport | Hartsfield Jackson Atlanta International Airport (KATL) |
| Time | Latitude | Longitude | Altitude | Speed | Heading |
|---|---|---|---|---|---|
| 2026-05-04 05:31 | 38.94595 | -77.44679 | 297 ft | 0 kts | 181° |
| 2026-05-04 05:40 | 38.94605 | -77.44679 | 297 ft | 2 kts | 181° |
| 2026-05-04 05:40 | 38.94620 | -77.44679 | 297 ft | 2 kts | 181° |
| 2026-05-04 05:40 | 38.94635 | -77.44679 | 297 ft | 2 kts | 181° |
| 2026-05-04 05:41 | 38.94651 | -77.44679 | 297 ft | 1 kts | 195° |
| 2026-05-04 05:41 | 38.94661 | -77.44667 | 298 ft | 2 kts | 254° |
| 2026-05-04 05:41 | 38.94662 | -77.44658 | 298 ft | 1 kts | 277° |
| 2026-05-04 05:41 | 38.94661 | -77.44653 | 298 ft | 0 kts | 271° |
| 2026-05-04 05:43 | 38.94661 | -77.44664 | 298 ft | 6 kts | 270° |
| 2026-05-04 05:43 | 38.94662 | -77.44765 | 296 ft | 13 kts | 271° |
| 2026-05-04 05:45 | 38.94659 | -77.45583 | 291 ft | 9 kts | 239° |
| 2026-05-04 05:45 | 38.94577 | -77.45609 | 292 ft | 18 kts | 180° |
| 2026-05-04 05:47 | 38.93718 | -77.45608 | 288 ft | 18 kts | 157° |
| 2026-05-04 05:47 | 38.93634 | -77.45513 | 287 ft | 13 kts | 143° |
| 2026-05-04 05:47 | 38.93544 | -77.45518 | 285 ft | 13 kts | 202° |
| 2026-05-04 05:48 | 38.93457 | -77.45564 | 283 ft | 14 kts | 202° |
| 2026-05-04 05:48 | 38.93384 | -77.45615 | 282 ft | 10 kts | 239° |
| 2026-05-04 05:48 | 38.93395 | -77.45706 | 282 ft | 12 kts | 291° |
| 2026-05-04 05:48 | 38.93486 | -77.46022 | 285 ft | 73 kts | 290° |
| 2026-05-04 05:49 | 38.93746 | -77.46906 | 294 ft | 136 kts | 290° |
| 2026-05-04 05:49 | 38.94139 | -77.48238 | 471 ft | 171 kts | 291° |
| 2026-05-04 05:49 | 38.94559 | -77.49609 | 1256 ft | 169 kts | 290° |
| 2026-05-04 05:49 | 38.95005 | -77.51020 | 1908 ft | 177 kts | 290° |
| 2026-05-04 05:51 | 38.93394 | -77.62110 | 5486 ft | 254 kts | 222° |
| 2026-05-04 05:51 | 38.92108 | -77.63628 | 6226 ft | 255 kts | 229° |
| 2026-05-04 05:52 | 38.90917 | -77.65334 | 6985 ft | 257 kts | 232° |
| 2026-05-04 05:52 | 38.89769 | -77.67071 | 7711 ft | 260 kts | 232° |
| 2026-05-04 05:52 | 38.88601 | -77.68834 | 8518 ft | 262 kts | 232° |
| 2026-05-04 05:52 | 38.87418 | -77.70601 | 9303 ft | 264 kts | 231° |
| 2026-05-04 05:53 | 38.86214 | -77.72376 | 10056 ft | 268 kts | 231° |
| 2026-05-04 05:54 | 38.76553 | -77.86504 | 14641 ft | 322 kts | 232° |
| 2026-05-04 05:55 | 38.75080 | -77.88632 | 15499 ft | 323 kts | 233° |
| 2026-05-04 05:55 | 38.73573 | -77.90813 | 16243 ft | 328 kts | 233° |
| 2026-05-04 05:55 | 38.72083 | -77.92974 | 17038 ft | 329 kts | 233° |
| 2026-05-04 05:55 | 38.70558 | -77.95188 | 17808 ft | 332 kts | 234° |
| 2026-05-04 05:56 | 38.69046 | -77.97387 | 18514 ft | 335 kts | 234° |
| 2026-05-04 05:56 | 38.67511 | -77.99620 | 19245 ft | 337 kts | 234° |
| 2026-05-04 05:56 | 38.65966 | -78.01863 | 19944 ft | 340 kts | 234° |
| 2026-05-04 05:56 | 38.64394 | -78.04141 | 20728 ft | 340 kts | 234° |
| 2026-05-04 05:57 | 38.62843 | -78.06384 | 21389 ft | 342 kts | 234° |
| 2026-05-04 05:57 | 38.61254 | -78.08684 | 21977 ft | 346 kts | 234° |
| 2026-05-04 05:57 | 38.59675 | -78.10967 | 22616 ft | 348 kts | 235° |
| 2026-05-04 05:57 | 38.58063 | -78.13294 | 23261 ft | 350 kts | 234° |
| 2026-05-04 05:58 | 38.56447 | -78.15627 | 23875 ft | 353 kts | 234° |
| 2026-05-04 05:58 | 38.54832 | -78.17963 | 24467 ft | 355 kts | 234° |
| 2026-05-04 05:58 | 38.53179 | -78.20354 | 25004 ft | 358 kts | 235° |
| 2026-05-04 05:58 | 38.51541 | -78.22722 | 25602 ft | 359 kts | 234° |
| 2026-05-04 05:59 | 38.49897 | -78.25092 | 26183 ft | 361 kts | 234° |
| 2026-05-04 05:59 | 38.48223 | -78.27502 | 26701 ft | 363 kts | 234° |
| 2026-05-04 05:59 | 38.46553 | -78.29900 | 27287 ft | 363 kts | 234° |
| 2026-05-04 05:59 | 38.44879 | -78.32302 | 27749 ft | 366 kts | 234° |
| 2026-05-04 06:00 | 38.43170 | -78.34752 | 28256 ft | 368 kts | 234° |
| 2026-05-04 06:00 | 38.41465 | -78.37195 | 28754 ft | 370 kts | 234° |
| 2026-05-04 06:00 | 38.39770 | -78.39623 | 29183 ft | 372 kts | 234° |
| 2026-05-04 06:00 | 38.38066 | -78.42065 | 29732 ft | 372 kts | 234° |
| 2026-05-04 06:01 | 38.36337 | -78.44541 | 30215 ft | 373 kts | 234° |
| 2026-05-04 06:01 | 38.34629 | -78.46985 | 30613 ft | 375 kts | 234° |
| 2026-05-04 06:03 | 38.22516 | -78.64249 | 34083 ft | 363 kts | 233° |
| 2026-05-04 06:03 | 38.20828 | -78.66650 | 34487 ft | 363 kts | 232° |
| 2026-05-04 06:05 | 38.08935 | -78.83528 | 35962 ft | 371 kts | 232° |
| 2026-05-04 06:05 | 38.05445 | -78.88464 | 36059 ft | 373 kts | 232° |
| 2026-05-04 06:06 | 38.02004 | -78.93312 | 36063 ft | 368 kts | 232° |
| 2026-05-04 06:06 | 37.98578 | -78.98135 | 36063 ft | 372 kts | 232° |
| 2026-05-04 06:07 | 37.95128 | -79.02985 | 36055 ft | 370 kts | 232° |
| 2026-05-04 06:07 | 37.91653 | -79.07867 | 36049 ft | 372 kts | 232° |
| 2026-05-04 06:08 | 37.88176 | -79.12744 | 36047 ft | 374 kts | 233° |
| 2026-05-04 06:08 | 37.84705 | -79.17608 | 36046 ft | 374 kts | 232° |
| 2026-05-04 06:09 | 37.81198 | -79.22513 | 36046 ft | 377 kts | 233° |
| 2026-05-04 06:11 | 37.67105 | -79.42139 | 36058 ft | 378 kts | 233° |
| 2026-05-04 06:13 | 37.52890 | -79.61817 | 36055 ft | 379 kts | 233° |
| 2026-05-04 06:14 | 37.40395 | -79.79015 | 36086 ft | 382 kts | 232° |
| 2026-05-04 06:15 | 37.36801 | -79.83943 | 36070 ft | 381 kts | 233° |
| 2026-05-04 06:15 | 37.33235 | -79.88830 | 36081 ft | 383 kts | 233° |
| 2026-05-04 06:16 | 37.29629 | -79.93761 | 36081 ft | 383 kts | 232° |
| 2026-05-04 06:16 | 37.26015 | -79.98691 | 36093 ft | 381 kts | 232° |
| 2026-05-04 06:17 | 37.22426 | -80.03584 | 36077 ft | 383 kts | 232° |
| 2026-05-04 06:17 | 37.18830 | -80.08478 | 36087 ft | 384 kts | 233° |
| 2026-05-04 06:18 | 37.15197 | -80.13418 | 36079 ft | 383 kts | 233° |
| 2026-05-04 06:20 | 37.00728 | -80.32994 | 36089 ft | 383 kts | 233° |
| 2026-05-04 06:21 | 36.91399 | -80.44915 | 36077 ft | 386 kts | 232° |
| 2026-05-04 06:22 | 36.87617 | -80.49729 | 36084 ft | 388 kts | 232° |
| 2026-05-04 06:25 | 36.61142 | -80.83332 | 36088 ft | 389 kts | 232° |
| 2026-05-04 06:26 | 36.57332 | -80.88145 | 36087 ft | 392 kts | 232° |
| 2026-05-04 06:26 | 36.53499 | -80.92973 | 36088 ft | 391 kts | 232° |
| 2026-05-04 06:27 | 36.43926 | -81.05004 | 36093 ft | 394 kts | 232° |
| 2026-05-04 06:28 | 36.40064 | -81.09845 | 36088 ft | 394 kts | 232° |
| 2026-05-04 06:28 | 36.36208 | -81.14669 | 36087 ft | 394 kts | 232° |
| 2026-05-04 06:29 | 36.32325 | -81.19521 | 36092 ft | 393 kts | 232° |
| 2026-05-04 06:29 | 36.28480 | -81.24326 | 36084 ft | 395 kts | 232° |
| 2026-05-04 06:30 | 36.24638 | -81.29125 | 36095 ft | 395 kts | 232° |
| 2026-05-04 06:30 | 36.20757 | -81.33968 | 36091 ft | 396 kts | 232° |
| 2026-05-04 06:31 | 36.16861 | -81.38815 | 36086 ft | 396 kts | 232° |
| 2026-05-04 06:31 | 36.12987 | -81.43629 | 36084 ft | 396 kts | 232° |
| 2026-05-04 06:33 | 35.97442 | -81.62878 | 36090 ft | 398 kts | 232° |
| 2026-05-04 06:34 | 35.93519 | -81.67718 | 36087 ft | 399 kts | 232° |
| 2026-05-04 06:34 | 35.89620 | -81.72520 | 36084 ft | 400 kts | 231° |
| 2026-05-04 06:36 | 35.73790 | -81.91843 | 36081 ft | 403 kts | 231° |
| 2026-05-04 06:37 | 35.69781 | -81.96626 | 36082 ft | 402 kts | 231° |
| 2026-05-04 06:37 | 35.65777 | -82.01395 | 36078 ft | 401 kts | 231° |
| 2026-05-04 06:38 | 35.61765 | -82.06176 | 36083 ft | 403 kts | 231° |
| 2026-05-04 06:40 | 35.45699 | -82.25275 | 36086 ft | 405 kts | 231° |
| 2026-05-04 06:40 | 35.41659 | -82.30073 | 36091 ft | 405 kts | 232° |
| 2026-05-04 06:41 | 35.37700 | -82.34946 | 36090 ft | 403 kts | 233° |
| 2026-05-04 06:41 | 35.33768 | -82.39871 | 36090 ft | 406 kts | 233° |
| 2026-05-04 06:42 | 35.29831 | -82.44783 | 36088 ft | 405 kts | 233° |
| 2026-05-04 06:44 | 35.13962 | -82.64384 | 36079 ft | 407 kts | 232° |
| 2026-05-04 06:44 | 35.09903 | -82.69210 | 36080 ft | 406 kts | 231° |
| 2026-05-04 06:45 | 35.05855 | -82.73985 | 36079 ft | 407 kts | 231° |
| 2026-05-04 06:45 | 35.01772 | -82.78812 | 36047 ft | 410 kts | 231° |
| 2026-05-04 06:46 | 34.99730 | -82.81221 | 35789 ft | 405 kts | 231° |
| 2026-05-04 06:46 | 34.97733 | -82.83570 | 35347 ft | 403 kts | 231° |
| 2026-05-04 06:46 | 34.95702 | -82.85965 | 34765 ft | 404 kts | 232° |
| 2026-05-04 06:46 | 34.93693 | -82.88340 | 34165 ft | 404 kts | 232° |
| 2026-05-04 06:48 | 34.79997 | -83.04188 | 30942 ft | 375 kts | 231° |
| 2026-05-04 06:48 | 34.78101 | -83.06375 | 30482 ft | 371 kts | 230° |
| 2026-05-04 06:49 | 34.76259 | -83.08502 | 30031 ft | 367 kts | 230° |
| 2026-05-04 06:50 | 34.63756 | -83.22902 | 26983 ft | 355 kts | 230° |
| 2026-05-04 06:51 | 34.61949 | -83.24997 | 26518 ft | 365 kts | 230° |
| 2026-05-04 06:51 | 34.60098 | -83.27127 | 26052 ft | 362 kts | 230° |
| 2026-05-04 06:51 | 34.58289 | -83.29196 | 25586 ft | 358 kts | 229° |
| 2026-05-04 06:51 | 34.56475 | -83.31267 | 25126 ft | 355 kts | 229° |
| 2026-05-04 06:52 | 34.54710 | -83.33283 | 24685 ft | 351 kts | 229° |
| 2026-05-04 06:52 | 34.52953 | -83.35298 | 24237 ft | 347 kts | 230° |
| 2026-05-04 06:52 | 34.51200 | -83.37313 | 23786 ft | 344 kts | 230° |
| 2026-05-04 06:52 | 34.49480 | -83.39292 | 23345 ft | 341 kts | 229° |
| 2026-05-04 06:53 | 34.47775 | -83.41254 | 22908 ft | 338 kts | 229° |
| 2026-05-04 06:53 | 34.46079 | -83.43204 | 22466 ft | 336 kts | 229° |
| 2026-05-04 06:53 | 34.44385 | -83.45150 | 22023 ft | 333 kts | 229° |
| 2026-05-04 06:53 | 34.42717 | -83.47065 | 21582 ft | 331 kts | 229° |
| 2026-05-04 06:54 | 34.41070 | -83.48955 | 21147 ft | 328 kts | 229° |
| 2026-05-04 06:54 | 34.39407 | -83.50860 | 20712 ft | 326 kts | 229° |
| 2026-05-04 06:54 | 34.37780 | -83.52724 | 20282 ft | 324 kts | 228° |
| 2026-05-04 06:54 | 34.36155 | -83.54584 | 19851 ft | 322 kts | 228° |
| 2026-05-04 06:55 | 34.34524 | -83.56451 | 19414 ft | 320 kts | 227° |
| 2026-05-04 06:55 | 34.32916 | -83.58290 | 18994 ft | 318 kts | 227° |
| 2026-05-04 06:55 | 34.31325 | -83.60108 | 18565 ft | 316 kts | 227° |
| 2026-05-04 06:55 | 34.29741 | -83.61918 | 18138 ft | 314 kts | 227° |
| 2026-05-04 06:56 | 34.28131 | -83.63734 | 17631 ft | 316 kts | 226° |
| 2026-05-04 06:57 | 34.16705 | -83.75854 | 14603 ft | 309 kts | 224° |
| 2026-05-04 06:58 | 34.15089 | -83.77570 | 14178 ft | 309 kts | 224° |
| 2026-05-04 06:58 | 34.13492 | -83.79265 | 13756 ft | 308 kts | 224° |
| 2026-05-04 06:58 | 34.11874 | -83.80981 | 13335 ft | 308 kts | 223° |
| 2026-05-04 06:58 | 34.10273 | -83.82680 | 12915 ft | 307 kts | 224° |
| 2026-05-04 06:59 | 34.08676 | -83.84377 | 12489 ft | 307 kts | 224° |
| 2026-05-04 06:59 | 34.07096 | -83.86071 | 12070 ft | 306 kts | 224° |
| 2026-05-04 06:59 | 34.05498 | -83.87790 | 11647 ft | 305 kts | 224° |
| 2026-05-04 06:59 | 34.03915 | -83.89493 | 11232 ft | 305 kts | 224° |
| 2026-05-04 07:01 | 33.91703 | -83.96790 | 8960 ft | 284 kts | 175° |
| 2026-05-04 07:01 | 33.89727 | -83.96584 | 8965 ft | 286 kts | 176° |
| 2026-05-04 07:02 | 33.87718 | -83.96433 | 8945 ft | 287 kts | 177° |
| 2026-05-04 07:02 | 33.85723 | -83.96328 | 8965 ft | 288 kts | 178° |
| 2026-05-04 07:02 | 33.83731 | -83.96246 | 8969 ft | 289 kts | 179° |
| 2026-05-04 07:02 | 33.81711 | -83.96168 | 8965 ft | 287 kts | 179° |
| 2026-05-04 07:03 | 33.79740 | -83.96091 | 8850 ft | 282 kts | 179° |
| 2026-05-04 07:03 | 33.77774 | -83.96011 | 8540 ft | 279 kts | 179° |
| 2026-05-04 07:03 | 33.75863 | -83.95986 | 8175 ft | 276 kts | 185° |
| 2026-05-04 07:03 | 33.73998 | -83.96410 | 7831 ft | 273 kts | 200° |
| 2026-05-04 07:04 | 33.72237 | -83.97271 | 7484 ft | 271 kts | 206° |
| 2026-05-04 07:04 | 33.70544 | -83.98213 | 7134 ft | 270 kts | 206° |
| 2026-05-04 07:04 | 33.68852 | -83.99129 | 6781 ft | 260 kts | 205° |
| 2026-05-04 07:04 | 33.67240 | -84.00021 | 6465 ft | 251 kts | 211° |
| 2026-05-04 07:05 | 33.65888 | -84.01255 | 6152 ft | 238 kts | 234° |
| 2026-05-04 07:05 | 33.65166 | -84.02959 | 5860 ft | 224 kts | 258° |
| 2026-05-04 07:05 | 33.64957 | -84.04723 | 5631 ft | 210 kts | 268° |
| 2026-05-04 07:05 | 33.64908 | -84.06467 | 5528 ft | 209 kts | 270° |
| 2026-05-04 07:06 | 33.64901 | -84.09943 | 5390 ft | 207 kts | 271° |
| 2026-05-04 07:06 | 33.64906 | -84.11616 | 5319 ft | 193 kts | 271° |
| 2026-05-04 07:06 | 33.64910 | -84.13169 | 5223 ft | 182 kts | 271° |
| 2026-05-04 07:07 | 33.64914 | -84.14683 | 4996 ft | 178 kts | 271° |
| 2026-05-04 07:08 | 33.64937 | -84.24934 | 3661 ft | 170 kts | 270° |
| 2026-05-04 07:09 | 33.64939 | -84.26334 | 3425 ft | 170 kts | 270° |
| 2026-05-04 07:09 | 33.64942 | -84.27755 | 3188 ft | 168 kts | 270° |
| 2026-05-04 07:09 | 33.64944 | -84.29154 | 2960 ft | 169 kts | 270° |
| 2026-05-04 07:09 | 33.64945 | -84.30539 | 2727 ft | 159 kts | 270° |
| 2026-05-04 07:10 | 33.64947 | -84.31805 | 2535 ft | 148 kts | 270° |
| 2026-05-04 07:10 | 33.64948 | -84.33038 | 2317 ft | 146 kts | 270° |
| 2026-05-04 07:12 | 33.64953 | -84.41542 | 986 ft | 142 kts | 270° |
| 2026-05-04 07:12 | 33.64953 | -84.42484 | 989 ft | 72 kts | 270° |
| 2026-05-04 07:12 | 33.64954 | -84.42934 | 998 ft | 37 kts | 270° |
| 2026-05-04 07:12 | 33.64933 | -84.43150 | 1004 ft | 20 kts | 251° |
| 2026-05-04 07:13 | 33.64890 | -84.43269 | 1007 ft | 13 kts | 246° |
| 2026-05-04 07:13 | 33.64858 | -84.43359 | 1009 ft | 10 kts | 249° |
| 2026-05-04 07:13 | 33.64844 | -84.43443 | 1011 ft | 11 kts | 267° |
| 2026-05-04 07:14 | 33.64574 | -84.43702 | 1017 ft | 14 kts | 211° |
| 2026-05-04 07:14 | 33.64483 | -84.43726 | 1017 ft | 13 kts | 178° |
| 2026-05-04 07:15 | 33.64386 | -84.43722 | 1017 ft | 14 kts | 179° |
| 2026-05-04 07:15 | 33.64320 | -84.43717 | 1017 ft | 6 kts | 160° |
| 2026-05-04 07:15 | 33.64305 | -84.43675 | 1016 ft | 6 kts | 91° |
| 2026-05-04 07:15 | 33.64304 | -84.43644 | 1016 ft | 0 kts | 89° |